GLACIER NATIONAL PARK
LOGAN PASS HOURLY WEATHER ROUNDUP
LOGAN_PASS 12/16/2017
CLICK HERE TO VIEW GRAPH
All data is provisional.
Wind sensor is not heated. Riming can occur.
        DATE  TIME Temp F  % RH Watt/m Wind Speed Wind Dir Max Gust Press InHg     BATT
                                                                                         
                     (1HR) (1HR)     AVG      (1HR)    (1HR)      MAX        AVG      AVG

  12/16/2017 19:00      13    84    0.00         17      277       26      29.90    11.47
  12/16/2017 18:00      14    84    0.00         16      282       28      29.91    11.47
  12/16/2017 17:00      14    85    3.09         13      273       19      29.90    11.47
  12/16/2017 16:00      15    85   18.56         11      272       18      29.89    11.48
  12/16/2017 15:00      15    85   50.96          9      280       12      29.89    11.49
  12/16/2017 14:00      16    85   65.30          7      284       11      29.89    11.50
  12/16/2017 13:00      16    85   59.20          5      286        7      29.91    11.51
  12/16/2017 12:00      16    86   59.82          6      293        9      29.91    11.51
  12/16/2017 11:00      16    85   41.22          4      311        7      29.91    11.50
  12/16/2017 10:00      16    85   31.34          4      285        7      29.90    11.49
  12/16/2017 09:00      16    86    4.14          5      277       10      29.88    11.48
  12/16/2017 08:00      17    86    0.00          5      277        7      29.87    11.48
  12/16/2017 07:00      17    86    0.00          5      281        9      29.86    11.48
  12/16/2017 06:00      17    87    0.00          8      276       14      29.85    11.49
  12/16/2017 05:00      18    86    0.00          6      270       10      29.84    11.49
  12/16/2017 04:00      18    87    0.00          5      275       11      29.84    11.49
  12/16/2017 03:00      19    87    0.00          3      280        5      29.83    11.49
  12/16/2017 02:00      19    87    0.00          3      291        6      29.82    11.49
  12/16/2017 01:00      19    88    0.00          3      267        6      29.82    11.49
  12/15/2017 24:00      19    87    0.00          4      277        7      29.83    11.49
  12/15/2017 23:00      19    88    0.00          6      271       10      29.84    11.49
  12/15/2017 22:00      19    88    0.00          9      286       13      29.82    11.49
  12/15/2017 21:00      19    88    0.00          9      283       13      29.82    11.49
  12/15/2017 20:00      19    88    0.00          6      283       11      29.83    11.50
  12/15/2017 19:00      20    88    0.00          6      286        9      29.83    11.50
  12/15/2017 18:00      20    88    0.00          8      298       12      29.82    11.50
  12/15/2017 17:00      20    88    3.07          9      279       13      29.81    11.51
  12/15/2017 16:00      20    88   22.95          9      276       15      29.81    11.51
  12/15/2017 15:00      21    88   58.73         10      286       19      29.81    11.53
  12/15/2017 14:00      22    88   71.40         14      296       26      29.81    11.56
  12/15/2017 13:00      22    88   92.10         16      283       37      29.81    11.59
  12/15/2017 12:00      22    88  111.80         12      281       29      29.83    11.56
  12/15/2017 11:00      22    89   81.60         12      267       30      29.87    11.56
  12/15/2017 10:00      21    88   93.10         12      299       31      29.88    11.52
  12/15/2017 09:00      20    86    2.58         12      279       23      29.89    11.51
  12/15/2017 08:00      21    88    0.00         16      299       39      29.88    11.51
  12/15/2017 07:00      18    88    0.00         13      317       27      29.91    11.51
  12/15/2017 06:00      19    86    0.00         11      316       26      29.92    11.51
  12/15/2017 05:00      19    87    0.00         11      300       23      29.95    11.51
  12/15/2017 04:00      18    87    0.00         12      302       20      29.99    11.52
  12/15/2017 03:00      15    87    0.00         12      296       19      30.01    11.52
  12/15/2017 02:00      15    85    0.00          9      273       16      30.01    11.52
  12/15/2017 01:00      15    85    0.00          9      267       12      30.04    11.53
  12/14/2017 24:00      14    85    0.00         11      284       16      30.05    11.53
  12/14/2017 23:00      15    85    0.00         11      274       13      30.07    11.53
  12/14/2017 22:00      15    86    0.00         11      279       15      30.08    11.53
  12/14/2017 21:00      14    85    0.00         14      300       18      30.10    11.53
  12/14/2017 20:00      14    85    0.00         13      302       19      30.12    11.54


CLICK HERE TO VIEW GRAPH